createdAt,value
2016-12-12T00:00:39.663Z,21.84
2016-12-12T00:01:20.176Z,21.89
2016-12-12T00:02:00.687Z,21.81
2016-12-12T00:02:41.217Z,21.81
2016-12-12T00:03:21.737Z,21.89
2016-12-12T00:04:02.255Z,21.96
2016-12-12T00:04:42.777Z,21.91
2016-12-12T00:05:23.296Z,21.96
2016-12-12T00:06:03.819Z,21.83
2016-12-12T00:06:44.333Z,21.94
2016-12-12T00:07:24.871Z,21.83
2016-12-12T00:08:05.437Z,21.89
2016-12-12T00:08:45.922Z,21.97
2016-12-12T00:09:26.444Z,21.89
2016-12-12T00:10:07.045Z,21.94
2016-12-12T00:10:47.575Z,21.91
2016-12-12T00:11:28.096Z,21.91
2016-12-12T00:12:08.625Z,21.89
2016-12-12T00:12:49.155Z,21.89
2016-12-12T00:13:29.683Z,21.85
2016-12-12T00:14:10.225Z,21.94
2016-12-12T00:14:50.743Z,21.97
2016-12-12T00:15:31.277Z,21.91
2016-12-12T00:16:11.846Z,21.88
2016-12-12T00:16:52.373Z,21.84
2016-12-12T00:17:32.902Z,21.84
2016-12-12T00:18:13.420Z,21.92
2016-12-12T00:18:53.972Z,21.94
2016-12-12T00:19:34.492Z,21.84
2016-12-12T00:20:15.026Z,21.88
2016-12-12T00:20:55.543Z,21.84
2016-12-12T00:21:36.054Z,21.89
2016-12-12T00:22:16.596Z,21.89
2016-12-12T00:22:57.103Z,21.88
2016-12-12T00:23:37.640Z,21.92
2016-12-12T00:24:18.162Z,21.83
2016-12-12T00:24:58.685Z,21.91
2016-12-12T00:25:39.195Z,21.88
2016-12-12T00:26:19.757Z,21.92
2016-12-12T00:27:00.275Z,21.8
2016-12-12T00:27:40.851Z,21.8
2016-12-12T00:28:21.377Z,21.89
2016-12-12T00:29:01.912Z,21.89
2016-12-12T00:29:42.487Z,21.89
2016-12-12T00:30:23.017Z,21.84
2016-12-12T00:31:03.527Z,21.83
2016-12-12T00:31:44.060Z,21.85
2016-12-12T00:32:24.581Z,21.8
2016-12-12T00:33:05.092Z,21.83
2016-12-12T00:33:45.597Z,21.8
2016-12-12T00:34:26.133Z,21.83
2016-12-12T00:35:06.681Z,21.81
2016-12-12T00:35:47.201Z,21.83
2016-12-12T00:36:27.713Z,21.88
2016-12-12T00:37:08.292Z,21.84
2016-12-12T00:37:48.855Z,21.88
2016-12-12T00:38:29.407Z,21.83
2016-12-12T00:39:09.945Z,21.89
2016-12-12T00:39:50.514Z,21.85
2016-12-12T00:40:31.047Z,21.88
2016-12-12T00:41:11.599Z,21.89
2016-12-12T00:41:52.116Z,21.91
2016-12-12T00:42:32.649Z,21.84
2016-12-12T00:43:13.169Z,21.88
2016-12-12T00:43:53.713Z,21.81
2016-12-12T00:44:34.246Z,21.78
2016-12-12T00:45:14.787Z,21.81
2016-12-12T00:45:55.322Z,21.83
2016-12-12T00:46:35.871Z,21.78
2016-12-12T00:47:16.412Z,21.83
2016-12-12T00:47:56.959Z,21.81
2016-12-12T00:48:37.523Z,21.83
2016-12-12T00:49:18.010Z,21.85
2016-12-12T00:49:58.550Z,21.83
2016-12-12T00:50:39.067Z,21.81
2016-12-12T00:51:19.596Z,21.78
2016-12-12T00:52:00.111Z,21.88
2016-12-12T00:52:40.685Z,21.83
2016-12-12T00:53:21.228Z,21.83
2016-12-12T00:54:01.768Z,21.8
2016-12-12T00:54:42.313Z,21.89
2016-12-12T00:55:22.848Z,21.78
2016-12-12T00:56:03.412Z,21.81
2016-12-12T00:56:43.946Z,21.85
2016-12-12T00:57:24.474Z,21.78
2016-12-12T00:58:05.000Z,21.8
2016-12-12T00:58:45.525Z,21.83
2016-12-12T00:59:26.072Z,21.83
2016-12-12T01:00:06.632Z,21.81
2016-12-12T01:00:47.161Z,21.81
2016-12-12T01:01:27.728Z,21.83
2016-12-12T01:02:08.281Z,21.8
2016-12-12T01:02:48.816Z,21.81
2016-12-12T01:03:29.328Z,21.83
2016-12-12T01:04:09.837Z,21.81
2016-12-12T01:04:50.353Z,21.88
2016-12-12T01:05:30.881Z,21.78
2016-12-12T01:06:11.421Z,21.83
2016-12-12T01:06:51.979Z,21.81
2016-12-12T01:07:32.498Z,21.88
2016-12-12T01:08:13.007Z,21.78
2016-12-12T01:08:53.559Z,21.81
2016-12-12T01:09:34.047Z,21.88
2016-12-12T01:10:14.585Z,21.88
2016-12-12T01:10:55.113Z,21.83
2016-12-12T01:11:35.641Z,21.85
2016-12-12T01:12:16.180Z,21.81
2016-12-12T01:12:56.708Z,21.83
2016-12-12T01:13:37.236Z,21.81
2016-12-12T01:14:17.767Z,21.77
2016-12-12T01:14:58.280Z,21.83
2016-12-12T01:15:38.814Z,21.74
2016-12-12T01:16:19.319Z,21.85
2016-12-12T01:16:59.832Z,21.75
2016-12-12T01:17:40.357Z,21.83
2016-12-12T01:18:20.860Z,21.83
2016-12-12T01:19:01.412Z,21.77
2016-12-12T01:19:41.952Z,21.8
2016-12-12T01:20:22.477Z,21.83
2016-12-12T01:21:03.007Z,21.81
2016-12-12T01:21:43.535Z,21.81
2016-12-12T01:22:24.066Z,21.83
2016-12-12T01:23:04.576Z,21.8
2016-12-12T01:23:45.113Z,21.83
2016-12-12T01:24:25.638Z,21.8
2016-12-12T01:25:06.170Z,21.78
2016-12-12T01:25:46.706Z,21.81
2016-12-12T01:26:27.247Z,21.8
2016-12-12T01:27:07.776Z,21.85
2016-12-12T01:27:48.305Z,21.85
2016-12-12T01:28:28.835Z,21.8
2016-12-12T01:29:09.357Z,21.81
2016-12-12T01:29:49.890Z,21.77
2016-12-12T01:30:30.417Z,21.78
2016-12-12T01:31:10.955Z,21.88
2016-12-12T01:31:51.482Z,21.83
2016-12-12T01:32:31.983Z,21.84
2016-12-12T01:33:12.509Z,21.84
2016-12-12T01:33:53.013Z,21.81
2016-12-12T01:34:33.545Z,21.89
2016-12-12T01:35:14.053Z,21.88
2016-12-12T01:35:54.583Z,21.83
2016-12-12T01:36:35.124Z,21.83
2016-12-12T01:37:15.655Z,21.84
2016-12-12T01:37:56.176Z,21.89
2016-12-12T01:38:36.714Z,21.83
2016-12-12T01:39:17.238Z,21.85
2016-12-12T01:39:57.761Z,21.89
2016-12-12T01:40:38.279Z,21.89
2016-12-12T01:41:18.804Z,21.78
2016-12-12T01:41:59.319Z,21.85
2016-12-12T01:42:39.834Z,21.88
2016-12-12T01:43:20.382Z,21.89
2016-12-12T01:44:00.891Z,21.83
2016-12-12T01:44:41.424Z,21.77
2016-12-12T01:45:21.945Z,21.81
2016-12-12T01:46:02.461Z,21.85
2016-12-12T01:46:42.972Z,21.83
2016-12-12T01:47:23.486Z,21.78
2016-12-12T01:48:04.029Z,21.84
2016-12-12T01:48:44.546Z,21.83
2016-12-12T01:49:25.069Z,21.81
2016-12-12T01:50:05.610Z,21.88
2016-12-12T01:50:46.101Z,21.83
2016-12-12T01:51:26.690Z,21.81
2016-12-12T01:52:07.214Z,21.81
2016-12-12T01:52:47.738Z,21.89
2016-12-12T01:53:28.273Z,21.77
2016-12-12T01:54:08.793Z,21.89
2016-12-12T01:54:49.322Z,21.85
2016-12-12T01:55:29.881Z,21.89
2016-12-12T01:56:10.377Z,21.88
2016-12-12T01:56:50.910Z,21.83
2016-12-12T01:57:31.421Z,21.84
2016-12-12T01:58:11.954Z,21.83
2016-12-12T01:58:52.492Z,21.89
2016-12-12T01:59:33.014Z,21.85
2016-12-12T02:00:13.556Z,21.91
2016-12-12T02:00:54.070Z,21.83
2016-12-12T02:01:34.603Z,21.8
2016-12-12T02:02:15.118Z,21.81
2016-12-12T02:02:55.668Z,21.89
2016-12-12T02:03:36.199Z,21.88
2016-12-12T02:04:16.719Z,21.83
2016-12-12T02:04:57.224Z,21.84
2016-12-12T02:05:37.744Z,21.88
2016-12-12T02:06:18.259Z,21.88
2016-12-12T02:06:58.791Z,21.85
2016-12-12T02:07:39.315Z,21.81
2016-12-12T02:08:19.852Z,21.89
2016-12-12T02:09:00.379Z,21.83
2016-12-12T02:09:40.905Z,21.88
2016-12-12T02:10:21.449Z,21.84
2016-12-12T02:11:01.968Z,21.85
2016-12-12T02:11:42.497Z,21.89
2016-12-12T02:12:23.031Z,21.92
2016-12-12T02:13:03.530Z,21.89
2016-12-12T02:13:44.060Z,21.89
2016-12-12T02:14:24.607Z,21.97
2016-12-12T02:15:05.113Z,21.94
2016-12-12T02:15:45.631Z,21.8
2016-12-12T02:16:26.144Z,21.83
2016-12-12T02:17:06.675Z,21.83
2016-12-12T02:17:47.197Z,21.88
2016-12-12T02:18:27.731Z,21.84
2016-12-12T02:19:08.266Z,21.85
2016-12-12T02:19:48.783Z,21.84
2016-12-12T02:20:29.306Z,21.88
2016-12-12T02:21:09.844Z,21.84
2016-12-12T02:21:50.380Z,21.89
2016-12-12T02:22:30.923Z,21.92
2016-12-12T02:23:11.434Z,21.81
2016-12-12T02:23:51.962Z,21.85
2016-12-12T02:24:32.510Z,21.91
2016-12-12T02:25:13.071Z,21.91
2016-12-12T02:25:53.620Z,21.88
2016-12-12T02:26:34.186Z,21.85
2016-12-12T02:27:14.725Z,21.84
2016-12-12T02:27:55.275Z,21.88
2016-12-12T02:28:35.800Z,21.85
2016-12-12T02:29:16.317Z,21.85
2016-12-12T02:29:56.836Z,21.84
2016-12-12T02:30:37.349Z,21.89
2016-12-12T02:31:17.867Z,21.91
2016-12-12T02:31:58.386Z,21.84
2016-12-12T02:32:38.903Z,21.84
2016-12-12T02:33:19.424Z,21.81
2016-12-12T02:33:59.959Z,21.89
2016-12-12T02:34:40.493Z,21.94
2016-12-12T02:35:21.043Z,21.92
2016-12-12T02:36:01.594Z,21.84
2016-12-12T02:36:42.114Z,21.81
2016-12-12T02:37:22.627Z,21.91
2016-12-12T02:38:03.155Z,21.83
2016-12-12T02:38:43.685Z,21.85
2016-12-12T02:39:24.217Z,21.81
2016-12-12T02:40:04.748Z,21.84
2016-12-12T02:40:45.269Z,21.88
2016-12-12T02:41:25.778Z,21.84
2016-12-12T02:42:06.285Z,21.89
2016-12-12T02:42:46.819Z,21.89
2016-12-12T02:43:27.345Z,21.85
2016-12-12T02:44:07.915Z,21.84
2016-12-12T02:44:48.460Z,21.83
2016-12-12T02:45:28.986Z,21.81
2016-12-12T02:46:09.524Z,21.84
2016-12-12T02:46:50.047Z,21.85
2016-12-12T02:47:30.566Z,21.84
2016-12-12T02:48:11.066Z,21.96
2016-12-12T02:48:51.591Z,21.91
2016-12-12T02:49:32.114Z,21.97
2016-12-12T02:50:12.631Z,21.91
2016-12-12T02:50:53.183Z,21.92
2016-12-12T02:51:33.693Z,21.91
2016-12-12T02:52:14.213Z,21.92
2016-12-12T02:52:54.724Z,21.88
2016-12-12T02:53:35.266Z,21.85
2016-12-12T02:54:15.808Z,21.88
2016-12-12T02:54:56.349Z,21.81
2016-12-12T02:55:36.895Z,21.83
2016-12-12T02:56:17.408Z,21.84
2016-12-12T02:56:57.956Z,21.88
2016-12-12T02:57:38.474Z,21.89
2016-12-12T02:58:19.008Z,21.85
2016-12-12T02:58:59.516Z,21.84
2016-12-12T02:59:40.028Z,21.85
2016-12-12T03:00:20.534Z,21.84
2016-12-12T03:01:01.088Z,21.92
2016-12-12T03:01:41.633Z,21.81
2016-12-12T03:02:22.173Z,21.89
2016-12-12T03:03:02.713Z,21.89
2016-12-12T03:03:43.220Z,21.83
2016-12-12T03:04:23.777Z,21.85
2016-12-12T03:05:04.328Z,21.92
2016-12-12T03:05:44.843Z,21.83
2016-12-12T03:06:25.374Z,21.84
2016-12-12T03:07:05.926Z,21.77
2016-12-12T03:07:46.470Z,21.85
2016-12-12T03:08:27.009Z,21.89
2016-12-12T03:09:07.513Z,21.89
2016-12-12T03:09:48.030Z,21.85
2016-12-12T03:10:28.566Z,21.8
2016-12-12T03:11:09.083Z,21.89
2016-12-12T03:11:49.620Z,21.92
2016-12-12T03:12:30.137Z,21.83
2016-12-12T03:13:10.652Z,21.85
2016-12-12T03:13:51.185Z,21.81
2016-12-12T03:14:31.729Z,21.85
2016-12-12T03:15:12.240Z,21.88
2016-12-12T03:15:52.753Z,21.88
2016-12-12T03:16:33.278Z,21.81
2016-12-12T03:17:13.779Z,21.85
2016-12-12T03:17:54.298Z,21.85
2016-12-12T03:18:34.876Z,21.84
2016-12-12T03:19:15.398Z,21.85
2016-12-12T03:19:55.928Z,21.85
2016-12-12T03:20:36.438Z,21.88
2016-12-12T03:21:16.965Z,21.89
2016-12-12T03:21:57.491Z,21.85
2016-12-12T03:22:38.035Z,21.89
2016-12-12T03:23:18.562Z,21.89
2016-12-12T03:23:59.078Z,21.78
2016-12-12T03:24:39.588Z,21.83
2016-12-12T03:25:20.123Z,21.78
2016-12-12T03:26:00.626Z,21.78
2016-12-12T03:26:41.183Z,21.84
2016-12-12T03:27:21.712Z,21.83
2016-12-12T03:28:02.217Z,21.78
2016-12-12T03:28:42.734Z,21.89
2016-12-12T03:29:23.255Z,21.81
2016-12-12T03:30:03.825Z,21.8
2016-12-12T03:30:44.355Z,21.83
2016-12-12T03:31:24.875Z,21.81
2016-12-12T03:32:05.383Z,21.75
2016-12-12T03:32:45.916Z,21.83
2016-12-12T03:33:26.430Z,21.8
2016-12-12T03:34:06.942Z,21.77
2016-12-12T03:34:47.463Z,21.8
2016-12-12T03:35:27.988Z,21.78
2016-12-12T03:36:08.506Z,21.84
2016-12-12T03:36:49.025Z,21.88
2016-12-12T03:37:29.532Z,21.85
2016-12-12T03:38:10.070Z,21.92
2016-12-12T03:38:50.596Z,21.81
2016-12-12T03:39:31.115Z,21.84
2016-12-12T03:40:11.656Z,21.84
2016-12-12T03:40:52.174Z,21.84
2016-12-12T03:41:32.730Z,21.83
2016-12-12T03:42:13.246Z,21.8
2016-12-12T03:42:53.774Z,21.83
2016-12-12T03:43:34.288Z,21.8
2016-12-12T03:44:14.812Z,21.83
2016-12-12T03:44:55.326Z,21.81
2016-12-12T03:45:35.836Z,21.85
2016-12-12T03:46:16.371Z,21.81
2016-12-12T03:46:56.902Z,21.84
2016-12-12T03:47:37.398Z,21.89
2016-12-12T03:48:17.931Z,21.8
2016-12-12T03:48:58.481Z,21.85
2016-12-12T03:49:39.017Z,21.84
2016-12-12T03:50:19.531Z,21.88
2016-12-12T03:51:00.059Z,21.84
2016-12-12T03:51:40.588Z,21.84
2016-12-12T03:52:21.133Z,21.91
2016-12-12T03:53:01.687Z,21.8
2016-12-12T03:53:42.201Z,21.83
2016-12-12T03:54:22.724Z,21.81
2016-12-12T03:55:03.236Z,21.88
2016-12-12T03:55:43.761Z,21.84
2016-12-12T03:56:24.274Z,21.85
2016-12-12T03:57:04.791Z,21.83
2016-12-12T03:57:45.318Z,21.89
2016-12-12T03:58:25.873Z,21.81
2016-12-12T03:59:06.398Z,21.88
2016-12-12T03:59:46.953Z,21.84
2016-12-12T04:00:27.483Z,21.84
2016-12-12T04:01:07.991Z,21.81
2016-12-12T04:01:48.526Z,21.81
2016-12-12T04:02:29.055Z,21.83
2016-12-12T04:03:09.577Z,21.8
2016-12-12T04:03:50.103Z,21.83
2016-12-12T04:04:30.634Z,21.85
2016-12-12T04:05:11.179Z,21.88
2016-12-12T04:05:51.722Z,21.83
2016-12-12T04:06:32.282Z,21.88
2016-12-12T04:07:12.800Z,21.81
2016-12-12T04:07:53.357Z,21.83
2016-12-12T04:08:33.870Z,21.91
2016-12-12T04:09:14.390Z,21.89
2016-12-12T04:09:54.948Z,21.84
2016-12-12T04:10:35.480Z,21.83
2016-12-12T04:11:16.026Z,21.85
2016-12-12T04:11:56.563Z,21.81
2016-12-12T04:12:37.108Z,21.89
2016-12-12T04:13:17.633Z,21.85
2016-12-12T04:13:58.157Z,21.88
2016-12-12T04:14:38.676Z,21.83
2016-12-12T04:15:19.193Z,21.88
2016-12-12T04:15:59.796Z,21.91
2016-12-12T04:16:40.329Z,21.85
2016-12-12T04:17:20.880Z,21.85
2016-12-12T04:18:01.440Z,21.88
2016-12-12T04:18:41.968Z,21.84
2016-12-12T04:19:22.493Z,21.92
2016-12-12T04:20:03.024Z,21.88
2016-12-12T04:20:43.539Z,21.89
2016-12-12T04:21:24.093Z,21.84
2016-12-12T04:22:04.625Z,21.91
2016-12-12T04:22:45.189Z,21.89
2016-12-12T04:23:25.730Z,21.8
2016-12-12T04:24:06.256Z,21.84
2016-12-12T04:24:46.786Z,21.85
2016-12-12T04:25:27.323Z,21.83
2016-12-12T04:26:07.834Z,21.85
2016-12-12T04:26:48.363Z,21.85
2016-12-12T04:27:28.926Z,21.85
2016-12-12T04:28:09.458Z,21.81
2016-12-12T04:28:49.993Z,21.94
2016-12-12T04:29:30.505Z,21.81
2016-12-12T04:30:11.040Z,21.84
2016-12-12T04:30:51.558Z,21.85
2016-12-12T04:31:32.079Z,21.84
2016-12-12T04:32:12.601Z,21.89
2016-12-12T04:32:53.119Z,21.84
2016-12-12T04:33:33.657Z,21.88
2016-12-12T04:34:14.188Z,21.81
2016-12-12T04:34:54.698Z,21.85
2016-12-12T04:35:35.234Z,21.84
2016-12-12T04:36:15.812Z,21.81
2016-12-12T04:36:56.343Z,21.81
2016-12-12T04:37:36.881Z,21.77
2016-12-12T04:38:17.407Z,21.83
2016-12-12T04:38:57.961Z,21.78
2016-12-12T04:39:38.485Z,21.85
2016-12-12T04:40:19.039Z,21.83
2016-12-12T04:40:59.553Z,21.85
2016-12-12T04:41:40.083Z,21.83
2016-12-12T04:42:20.609Z,21.81
2016-12-12T04:43:01.133Z,21.8
2016-12-12T04:43:41.653Z,21.81
2016-12-12T04:44:22.200Z,21.88
2016-12-12T04:45:02.773Z,21.8
2016-12-12T04:45:43.284Z,21.8
2016-12-12T04:46:23.825Z,21.89
2016-12-12T04:47:04.352Z,21.83
2016-12-12T04:47:44.893Z,21.88
2016-12-12T04:48:25.408Z,21.78
2016-12-12T04:49:05.953Z,21.81
2016-12-12T04:49:46.477Z,21.89
2016-12-12T04:50:27.009Z,21.89
2016-12-12T04:51:07.532Z,21.81
2016-12-12T04:51:48.056Z,21.84
2016-12-12T04:52:28.585Z,21.75
2016-12-12T04:53:09.100Z,21.84
2016-12-12T04:53:49.645Z,21.85
2016-12-12T04:54:30.173Z,21.89
2016-12-12T04:55:10.689Z,21.85
2016-12-12T04:55:51.222Z,21.91
2016-12-12T04:56:31.756Z,21.88
2016-12-12T04:57:12.253Z,21.84
2016-12-12T04:57:52.776Z,21.88
2016-12-12T04:58:33.293Z,21.83
2016-12-12T04:59:13.849Z,21.8
2016-12-12T04:59:54.333Z,21.94
2016-12-12T05:00:34.878Z,21.83
2016-12-12T05:01:15.386Z,21.92
2016-12-12T05:01:55.908Z,21.91
2016-12-12T05:02:36.416Z,21.96
2016-12-12T05:03:16.934Z,21.89
2016-12-12T05:03:57.468Z,21.81
2016-12-12T05:04:38.003Z,21.91
2016-12-12T05:05:18.547Z,21.85
2016-12-12T05:05:59.067Z,21.88
2016-12-12T05:06:39.589Z,21.84
2016-12-12T05:07:20.117Z,21.84
2016-12-12T05:08:00.643Z,21.8
2016-12-12T05:08:41.154Z,21.84
2016-12-12T05:09:21.663Z,21.89
2016-12-12T05:10:02.242Z,21.81
2016-12-12T05:10:42.751Z,21.91
2016-12-12T05:11:23.261Z,21.91
2016-12-12T05:12:03.790Z,21.91
2016-12-12T05:12:44.325Z,21.94
2016-12-12T05:13:24.855Z,21.91
2016-12-12T05:14:05.394Z,21.92
2016-12-12T05:14:45.924Z,21.94
2016-12-12T05:15:26.436Z,21.94
2016-12-12T05:16:06.947Z,21.89
2016-12-12T05:16:47.484Z,21.91
2016-12-12T05:17:27.990Z,21.83
2016-12-12T05:18:08.517Z,21.91
2016-12-12T05:18:49.026Z,21.91
2016-12-12T05:19:29.547Z,21.89
2016-12-12T05:20:10.059Z,21.92
2016-12-12T05:20:50.566Z,21.89
2016-12-12T05:21:31.073Z,21.81
2016-12-12T05:22:11.591Z,21.92
2016-12-12T05:22:52.115Z,21.96
2016-12-12T05:23:32.640Z,21.88
2016-12-12T05:24:13.160Z,21.94
2016-12-12T05:24:53.702Z,21.94
2016-12-12T05:25:34.246Z,21.89
2016-12-12T05:26:14.796Z,21.92
2016-12-12T05:26:55.333Z,21.88
2016-12-12T05:27:35.872Z,22.03
2016-12-12T05:28:16.403Z,21.91
2016-12-12T05:28:56.935Z,21.92
2016-12-12T05:29:37.466Z,21.97
2016-12-12T05:30:18.002Z,21.91
2016-12-12T05:30:58.544Z,21.92
2016-12-12T05:31:39.093Z,21.91
2016-12-12T05:32:19.619Z,22
2016-12-12T05:33:00.152Z,21.84
2016-12-12T05:33:40.694Z,21.92
2016-12-12T05:34:21.225Z,21.84
2016-12-12T05:35:01.767Z,21.94
2016-12-12T05:35:42.291Z,21.84
2016-12-12T05:36:22.819Z,21.91
2016-12-12T05:37:03.338Z,21.84
2016-12-12T05:37:43.854Z,21.89
2016-12-12T05:38:24.369Z,21.89
2016-12-12T05:39:04.908Z,21.89
2016-12-12T05:39:45.459Z,21.94
2016-12-12T05:40:25.984Z,21.94
2016-12-12T05:41:06.501Z,21.97
2016-12-12T05:41:47.027Z,21.92
2016-12-12T05:42:27.552Z,21.94
2016-12-12T05:43:08.099Z,21.94
2016-12-12T05:43:48.619Z,21.99
2016-12-12T05:44:29.161Z,21.92
2016-12-12T05:45:09.658Z,22
2016-12-12T05:45:50.170Z,21.97
2016-12-12T05:46:30.708Z,21.94
2016-12-12T05:47:11.231Z,21.97
2016-12-12T05:47:51.801Z,21.94
2016-12-12T05:48:32.329Z,21.88
2016-12-12T05:49:12.851Z,21.91
2016-12-12T05:49:53.361Z,21.89
2016-12-12T05:50:33.917Z,21.89
2016-12-12T05:51:14.447Z,21.94
2016-12-12T05:51:55.001Z,21.85
2016-12-12T05:52:35.577Z,21.94
2016-12-12T05:53:16.108Z,21.88
2016-12-12T05:53:56.635Z,21.84
2016-12-12T05:54:37.169Z,21.94
2016-12-12T05:55:17.698Z,21.83
2016-12-12T05:55:58.221Z,21.94
2016-12-12T05:56:38.736Z,21.97
2016-12-12T05:57:19.260Z,21.96
2016-12-12T05:57:59.771Z,21.96
2016-12-12T05:58:40.292Z,21.89
2016-12-12T05:59:20.812Z,21.99
2016-12-12T06:00:01.342Z,21.94
2016-12-12T06:00:41.880Z,21.97
2016-12-12T06:01:22.391Z,21.92
2016-12-12T06:02:02.900Z,21.99
2016-12-12T06:02:43.415Z,21.92
2016-12-12T06:03:23.971Z,21.88
2016-12-12T06:04:04.504Z,21.91
2016-12-12T06:04:45.022Z,21.99
2016-12-12T06:05:25.556Z,21.99
2016-12-12T06:06:06.093Z,21.94
2016-12-12T06:06:46.615Z,21.88
2016-12-12T06:07:27.157Z,22.06
2016-12-12T06:08:07.725Z,22.08
2016-12-12T06:08:48.256Z,22.06
2016-12-12T06:09:28.780Z,22.01
2016-12-12T06:10:09.301Z,22.1
2016-12-12T06:10:49.826Z,22
2016-12-12T06:11:30.344Z,22.1
2016-12-12T06:12:10.868Z,22.04
2016-12-12T06:12:51.409Z,22.1
2016-12-12T06:13:31.949Z,22.06
2016-12-12T06:14:12.475Z,22.01
2016-12-12T06:14:52.999Z,22.08
2016-12-12T06:15:33.522Z,22.06
2016-12-12T06:16:14.052Z,21.96
2016-12-12T06:16:54.600Z,22.03
2016-12-12T06:17:35.157Z,22.1
2016-12-12T06:18:15.681Z,22.14
2016-12-12T06:18:56.205Z,22.03
2016-12-12T06:19:36.766Z,22.04
2016-12-12T06:20:17.307Z,22.08
2016-12-12T06:20:57.899Z,22.06
2016-12-12T06:21:38.415Z,22.1
2016-12-12T06:22:18.934Z,22.03
2016-12-12T06:22:59.451Z,22.03
2016-12-12T06:23:39.992Z,22.07
2016-12-12T06:24:20.517Z,22
2016-12-12T06:25:01.023Z,22.04
2016-12-12T06:25:41.540Z,22.06
2016-12-12T06:26:22.092Z,21.85
2016-12-12T06:27:02.611Z,21.92
2016-12-12T06:27:43.162Z,21.91
2016-12-12T06:28:23.727Z,21.92
2016-12-12T06:29:04.259Z,21.96
2016-12-12T06:29:44.789Z,21.92
2016-12-12T06:30:25.321Z,21.96
2016-12-12T06:31:05.833Z,21.96
2016-12-12T06:31:46.438Z,21.89
2016-12-12T06:32:26.991Z,21.92
2016-12-12T06:33:07.517Z,21.92
2016-12-12T06:33:48.033Z,21.99
2016-12-12T06:34:28.582Z,22
2016-12-12T06:35:09.189Z,22.01
2016-12-12T06:35:49.709Z,21.96
2016-12-12T06:36:30.251Z,22
2016-12-12T06:37:10.767Z,21.91
2016-12-12T06:37:51.284Z,21.94
2016-12-12T06:38:31.847Z,22
2016-12-12T06:39:12.340Z,21.99
2016-12-12T06:39:52.885Z,21.88
2016-12-12T06:40:33.436Z,21.92
2016-12-12T06:41:13.948Z,21.92
2016-12-12T06:41:54.482Z,21.97
2016-12-12T06:42:35.010Z,21.94
2016-12-12T06:43:15.543Z,21.94
2016-12-12T06:43:56.064Z,21.94
2016-12-12T06:44:36.586Z,21.92
2016-12-12T06:45:17.122Z,21.94
2016-12-12T06:45:57.660Z,21.94
2016-12-12T06:46:38.308Z,21.85
2016-12-12T06:47:18.832Z,21.88
2016-12-12T06:47:59.398Z,21.99
2016-12-12T06:48:39.926Z,21.89
2016-12-12T06:49:20.448Z,21.94
2016-12-12T06:50:00.967Z,22.01
2016-12-12T06:50:41.478Z,21.78
2016-12-12T06:51:22.003Z,21.91
2016-12-12T06:52:02.521Z,21.85
2016-12-12T06:52:43.057Z,21.88
2016-12-12T06:53:23.582Z,21.92
2016-12-12T06:54:04.127Z,21.91
2016-12-12T06:54:44.640Z,21.89
2016-12-12T06:55:25.159Z,21.85
2016-12-12T06:56:05.686Z,21.89
2016-12-12T06:56:46.233Z,21.91
2016-12-12T06:57:26.753Z,21.94
2016-12-12T06:58:07.273Z,21.97
2016-12-12T06:58:47.814Z,22
2016-12-12T06:59:28.345Z,21.94
2016-12-12T07:00:08.844Z,22.03
2016-12-12T07:00:49.366Z,21.91
2016-12-12T07:01:29.897Z,21.92
2016-12-12T07:02:10.395Z,21.92
2016-12-12T07:02:50.908Z,21.88
2016-12-12T07:03:31.442Z,21.94
2016-12-12T07:04:11.971Z,21.94
2016-12-12T07:04:52.495Z,21.99
2016-12-12T07:05:33.013Z,21.97
2016-12-12T07:06:13.525Z,21.96
2016-12-12T07:06:54.038Z,21.89
2016-12-12T07:07:34.571Z,21.94
2016-12-12T07:08:15.113Z,21.94
2016-12-12T07:08:55.631Z,21.97
2016-12-12T07:09:36.168Z,22.01
2016-12-12T07:10:16.678Z,21.97
2016-12-12T07:10:57.290Z,22.06
2016-12-12T07:11:37.803Z,22.08
2016-12-12T07:12:18.345Z,22.1
2016-12-12T07:12:58.926Z,22.04
2016-12-12T07:13:39.467Z,22.06
2016-12-12T07:14:19.990Z,22
2016-12-12T07:15:00.520Z,22.06
2016-12-12T07:15:41.047Z,22.04
2016-12-12T07:16:21.571Z,22.1
2016-12-12T07:17:02.097Z,22.07
2016-12-12T07:17:42.619Z,22.04
2016-12-12T07:18:23.141Z,22.06
2016-12-12T07:19:03.658Z,22.08
2016-12-12T07:19:44.184Z,22.1
2016-12-12T07:20:24.703Z,22.06
2016-12-12T07:21:05.216Z,22.15
2016-12-12T07:21:45.747Z,22
2016-12-12T07:22:26.283Z,22.07
2016-12-12T07:23:06.917Z,22.08
2016-12-12T07:23:47.438Z,22.06
2016-12-12T07:24:27.953Z,22.07
2016-12-12T07:25:08.503Z,22.08
2016-12-12T07:25:49.017Z,22.04
2016-12-12T07:26:29.542Z,22.08
2016-12-12T07:27:10.089Z,22.03
2016-12-12T07:27:50.613Z,22.1
2016-12-12T07:28:31.143Z,22.03
2016-12-12T07:29:11.656Z,22.07
2016-12-12T07:29:53.162Z,22.12
2016-12-12T07:30:33.104Z,22.07
2016-12-12T07:31:13.741Z,22.08
2016-12-12T07:31:54.585Z,22.1
2016-12-12T07:32:35.326Z,22.06
2016-12-12T07:33:15.890Z,22.1
2016-12-12T07:33:56.532Z,22.12
2016-12-12T07:34:37.183Z,22.07
2016-12-12T07:35:17.704Z,22.12
2016-12-12T07:35:58.231Z,22.12
2016-12-12T07:36:38.758Z,22.1
2016-12-12T07:37:19.431Z,22.12
2016-12-12T07:37:59.956Z,22.04
2016-12-12T07:38:40.488Z,22.1
2016-12-12T07:39:20.992Z,22.14
2016-12-12T07:40:01.630Z,22.08
2016-12-12T07:40:42.171Z,22.12
2016-12-12T07:41:22.711Z,22.12
2016-12-12T07:42:03.244Z,22.03
2016-12-12T07:42:43.773Z,22.16
2016-12-12T07:43:24.311Z,22.08
2016-12-12T07:44:04.821Z,22.12
2016-12-12T07:44:45.447Z,22.14
2016-12-12T07:45:26.250Z,22.06
2016-12-12T07:46:06.769Z,22.06
2016-12-12T07:46:47.283Z,22.07
2016-12-12T07:47:27.879Z,22.14
2016-12-12T07:48:09.159Z,22.08
2016-12-12T07:48:49.131Z,22.03
2016-12-12T07:49:29.797Z,22.07
2016-12-12T07:50:10.342Z,22.14
2016-12-12T07:50:50.868Z,22.03
2016-12-12T07:51:31.395Z,22.15
2016-12-12T07:52:11.929Z,22.1
2016-12-12T07:52:52.473Z,22.14
2016-12-12T07:53:33.001Z,22.14
2016-12-12T07:54:13.543Z,22.1
2016-12-12T07:54:54.070Z,22.12
2016-12-12T07:55:34.608Z,22.1
2016-12-12T07:56:15.125Z,22.06
2016-12-12T07:56:55.673Z,22.16
2016-12-12T07:57:36.222Z,22.15
2016-12-12T07:58:16.743Z,22.16
2016-12-12T07:58:57.262Z,22.04
2016-12-12T07:59:37.814Z,22.12
2016-12-12T08:00:18.354Z,22.07
2016-12-12T08:00:58.898Z,22.15
2016-12-12T08:01:39.408Z,22.15
2016-12-12T08:02:19.909Z,22.1
2016-12-12T08:03:00.453Z,22.14
2016-12-12T08:03:40.983Z,22.23
2016-12-12T08:04:21.518Z,22.14
2016-12-12T08:05:02.117Z,22.14
2016-12-12T08:05:42.620Z,22.08
2016-12-12T08:06:23.138Z,22.18
2016-12-12T08:07:03.669Z,22.06
2016-12-12T08:07:44.224Z,22.06
2016-12-12T08:08:24.776Z,22.04
2016-12-12T08:09:05.304Z,22.14
2016-12-12T08:09:45.834Z,22.14
2016-12-12T08:10:26.385Z,22.06
2016-12-12T08:11:06.904Z,22.06
2016-12-12T08:11:47.471Z,22.06
2016-12-12T08:12:28.002Z,22.08
2016-12-12T08:13:08.521Z,22.08
2016-12-12T08:13:49.088Z,22.04
2016-12-12T08:14:29.631Z,22.12
2016-12-12T08:15:10.237Z,22.14
2016-12-12T08:15:50.767Z,22.03
2016-12-12T08:16:31.330Z,22.04
2016-12-12T08:17:11.883Z,22.07
2016-12-12T08:17:52.415Z,22.03
2016-12-12T08:18:32.943Z,22.08
2016-12-12T08:19:13.450Z,22.1
2016-12-12T08:19:53.979Z,22.07
2016-12-12T08:20:34.520Z,22
2016-12-12T08:21:15.031Z,22.14
2016-12-12T08:21:55.560Z,22.08
2016-12-12T08:22:36.136Z,22.1
2016-12-12T08:23:16.647Z,22.07
2016-12-12T08:23:57.205Z,22.01
2016-12-12T08:24:37.723Z,22
2016-12-12T08:25:18.249Z,22
2016-12-12T08:25:58.799Z,22.03
2016-12-12T08:26:39.327Z,22.04
2016-12-12T08:27:19.860Z,21.97
2016-12-12T08:28:00.382Z,22.01
2016-12-12T08:28:40.940Z,22.12
2016-12-12T08:29:21.463Z,22.04
2016-12-12T08:30:01.994Z,22.08
2016-12-12T08:30:42.535Z,22
2016-12-12T08:31:23.042Z,21.97
2016-12-12T08:32:03.583Z,22.04
2016-12-12T08:32:44.099Z,22
2016-12-12T08:33:24.628Z,22.1
2016-12-12T08:34:05.176Z,22.04
2016-12-12T08:34:45.713Z,22.07
2016-12-12T08:35:26.229Z,22.12
2016-12-12T08:36:06.786Z,22.04
2016-12-12T08:36:47.329Z,22.07
2016-12-12T08:37:27.859Z,22
2016-12-12T08:38:08.380Z,22.03
2016-12-12T08:38:48.918Z,22.1
2016-12-12T08:39:29.428Z,22
2016-12-12T08:40:09.955Z,21.99
2016-12-12T08:40:50.475Z,22.03
2016-12-12T08:41:30.978Z,22.04
2016-12-12T08:42:11.503Z,22.08
2016-12-12T08:42:52.033Z,22.06
2016-12-12T08:43:32.559Z,22.08
2016-12-12T08:44:13.067Z,22
2016-12-12T08:44:53.633Z,22.04